Terminal Aerodrome Forecast
Issued by NWS

Home | Current Version | Previous Version | Graphics & Text | Print | Product List | Glossary On
Versions: 1 2 3 4 5 6 7 8 9 10 11 12 13 14 15 16 17 18 19 20
000
FTUS43 KGRB 310300 AAA
TAFAUW
TAF AMD
KAUW 310300Z 3103/3124 31014G24KT P6SM SCT025 BKN050
      TEMPO 3104/3107 3SM -SHSN BKN025
     FM310800 34016G27KT P6SM SCT020 BKN035
     FM311800 35013G23KT P6SM SCT040
     FM312200 35008KT P6SM SKC=

USA.gov is the U.S. government's official web portal to all federal, state and local government web resources and services.